createdAt,value
2018-07-15T00:02:03.475Z,4.20
2018-07-15T00:04:44.889Z,4.20
2018-07-15T00:07:26.602Z,4.30
2018-07-15T00:10:07.391Z,4.40
2018-07-15T00:12:48.484Z,3.70
2018-07-15T00:15:29.051Z,4.20
2018-07-15T00:18:10.408Z,3.40
2018-07-15T00:20:51.914Z,3.90
2018-07-15T00:23:32.556Z,3.93
2018-07-15T00:26:13.347Z,3.20
2018-07-15T00:28:54.847Z,3.00
2018-07-15T00:31:35.996Z,3.47
2018-07-15T00:34:17.312Z,3.00
2018-07-15T00:36:58.513Z,3.70
2018-07-15T00:39:40.133Z,3.77
2018-07-15T00:42:20.832Z,4.33
2018-07-15T00:45:02.188Z,3.33
2018-07-15T00:47:43.100Z,5.30
2018-07-15T00:50:24.048Z,3.93
2018-07-15T00:53:05.044Z,4.93
2018-07-15T00:55:46.004Z,4.10
2018-07-15T00:58:26.860Z,4.17
2018-07-15T01:01:07.652Z,3.93
2018-07-15T01:03:48.339Z,4.73
2018-07-15T01:06:29.220Z,4.47
2018-07-15T01:09:11.164Z,4.13
2018-07-15T01:11:52.059Z,4.90
2018-07-15T01:14:33.144Z,5.40
2018-07-15T01:17:14.079Z,5.67
2018-07-15T01:19:54.693Z,5.00
2018-07-15T01:22:35.911Z,5.83
2018-07-15T01:25:17.247Z,5.53
2018-07-15T01:27:58.247Z,6.03
2018-07-15T01:30:39.597Z,6.07
2018-07-15T01:33:20.394Z,6.53
2018-07-15T01:36:01.380Z,5.40
2018-07-15T01:38:42.438Z,6.80
2018-07-15T01:41:23.881Z,6.80
2018-07-15T01:44:05.015Z,7.90
2018-07-15T01:46:46.405Z,6.80
2018-07-15T01:49:27.960Z,7.73
2018-07-15T01:52:09.591Z,8.63
2018-07-15T01:54:51.061Z,6.83
2018-07-15T01:57:31.777Z,7.50
2018-07-15T02:00:13.110Z,7.03
2018-07-15T02:02:54.082Z,7.27
2018-07-15T02:05:34.700Z,7.50
2018-07-15T02:08:15.615Z,6.47
2018-07-15T02:10:56.635Z,7.43
2018-07-15T02:13:37.581Z,6.90
2018-07-15T02:16:18.475Z,6.10
2018-07-15T02:18:59.900Z,6.33
2018-07-15T02:21:40.704Z,5.90
2018-07-15T02:24:21.934Z,5.93
2018-07-15T02:27:03.200Z,6.57
2018-07-15T02:29:44.337Z,7.20
2018-07-15T02:32:24.792Z,6.77
2018-07-15T02:35:06.208Z,7.80
2018-07-15T02:37:46.961Z,8.70
2018-07-15T02:40:28.368Z,9.83
2018-07-15T02:43:09.304Z,10.03
2018-07-15T02:45:49.980Z,10.00
2018-07-15T02:48:31.189Z,11.10
2018-07-15T02:51:12.863Z,10.40
2018-07-15T02:53:53.886Z,10.90
2018-07-15T02:56:35.306Z,10.80
2018-07-15T02:59:16.032Z,10.57
2018-07-15T03:01:57.312Z,11.13
2018-07-15T03:04:37.972Z,11.33
2018-07-15T03:07:19.304Z,10.43
2018-07-15T03:10:00.695Z,10.13
2018-07-15T03:12:41.381Z,10.73
2018-07-15T03:15:22.352Z,11.67
2018-07-15T03:18:03.066Z,10.60
2018-07-15T03:20:44.168Z,12.03
2018-07-15T03:23:24.904Z,9.43
2018-07-15T03:26:06.019Z,10.90
2018-07-15T03:28:47.215Z,10.60
2018-07-15T03:31:28.096Z,9.70
2018-07-15T03:34:09.140Z,9.63
2018-07-15T03:36:50.032Z,10.30
2018-07-15T03:39:31.277Z,10.90
2018-07-15T03:42:12.256Z,11.77
2018-07-15T03:44:53.276Z,11.53
2018-07-15T03:47:34.775Z,11.17
2018-07-15T03:50:15.432Z,10.07
2018-07-15T03:52:56.855Z,10.40
2018-07-15T03:55:38.244Z,10.47
2018-07-15T03:58:19.612Z,10.80
2018-07-15T04:01:01.016Z,11.33
2018-07-15T04:03:42.376Z,11.20
2018-07-15T04:06:23.075Z,11.47
2018-07-15T04:09:05.232Z,12.20
2018-07-15T04:11:46.319Z,10.47
2018-07-15T04:14:27.283Z,9.70
2018-07-15T04:17:08.825Z,11.30
2018-07-15T04:19:49.349Z,12.33
2018-07-15T04:22:30.475Z,11.00
2018-07-15T04:25:11.333Z,11.87
2018-07-15T04:27:52.092Z,10.43
2018-07-15T04:30:33.084Z,10.13
2018-07-15T04:33:14.527Z,11.37
2018-07-15T04:35:55.391Z,10.07
2018-07-15T04:38:36.836Z,10.47
2018-07-15T04:41:17.652Z,9.07
2018-07-15T04:43:58.527Z,9.30
2018-07-15T04:46:39.673Z,10.90
2018-07-15T04:49:20.671Z,9.90
2018-07-15T04:52:01.975Z,9.97
2018-07-15T04:54:42.850Z,9.57
2018-07-15T04:57:23.840Z,8.83
2018-07-15T05:00:05.155Z,8.50
2018-07-15T05:02:46.417Z,8.97
2018-07-15T05:05:27.376Z,9.67
2018-07-15T05:08:08.789Z,10.33
2018-07-15T05:10:50.114Z,9.20
2018-07-15T05:13:31.361Z,10.73
2018-07-15T05:16:11.871Z,10.00
2018-07-15T05:18:52.788Z,8.77
2018-07-15T05:21:34.107Z,11.60
2018-07-15T05:24:15.203Z,9.20
2018-07-15T05:26:55.996Z,8.23
2018-07-15T05:29:36.861Z,8.90
2018-07-15T05:32:17.564Z,8.30
2018-07-15T05:35:04.888Z,8.70
2018-07-15T05:37:45.424Z,7.10
2018-07-15T05:40:26.419Z,7.60
2018-07-15T05:43:07.440Z,8.20
2018-07-15T05:45:48.630Z,6.87
2018-07-15T05:48:29.431Z,6.70
2018-07-15T05:51:10.467Z,6.70
2018-07-15T05:53:51.967Z,6.60
2018-07-15T05:56:33.287Z,6.13
2018-07-15T05:59:14.319Z,7.10
2018-07-15T06:01:55.274Z,6.77
2018-07-15T06:04:36.427Z,8.50
2018-07-15T06:07:18.226Z,6.97
2018-07-15T06:09:58.924Z,6.37
2018-07-15T06:12:39.910Z,7.00
2018-07-15T06:15:20.499Z,6.37
2018-07-15T06:18:01.760Z,5.80
2018-07-15T06:20:42.447Z,5.77
2018-07-15T06:23:23.600Z,5.20
2018-07-15T06:26:04.427Z,5.53
2018-07-15T06:28:45.616Z,5.73
2018-07-15T06:31:27.291Z,5.00
2018-07-15T06:34:08.504Z,6.77
2018-07-15T06:36:49.906Z,4.83
2018-07-15T06:39:30.677Z,5.07
2018-07-15T06:42:11.763Z,5.33
2018-07-15T06:44:52.468Z,5.80
2018-07-15T06:47:33.260Z,5.67
2018-07-15T06:50:14.251Z,6.10
2018-07-15T06:52:54.915Z,4.93
2018-07-15T06:55:35.860Z,8.90
2018-07-15T06:58:17.599Z,8.23
2018-07-15T07:00:58.896Z,4.60
2018-07-15T07:03:39.864Z,5.37
2018-07-15T07:06:21.023Z,4.13
2018-07-15T07:09:01.718Z,4.67
2018-07-15T07:11:42.759Z,4.90
2018-07-15T07:14:23.623Z,3.50
2018-07-15T07:17:04.739Z,4.03
2018-07-15T07:19:46.138Z,4.27
2018-07-15T07:22:26.728Z,4.90
2018-07-15T07:25:08.106Z,5.07
2018-07-15T07:27:49.001Z,5.20
2018-07-15T07:30:29.848Z,4.07
2018-07-15T07:33:11.243Z,4.13
2018-07-15T07:35:54.063Z,4.43
2018-07-15T07:38:35.283Z,4.10
2018-07-15T07:41:16.497Z,5.17
2018-07-15T07:43:57.867Z,4.50
2018-07-15T07:46:41.801Z,4.93
2018-07-15T07:49:22.983Z,4.50
2018-07-15T07:52:04.419Z,5.10
2018-07-15T07:54:45.084Z,6.00
2018-07-15T07:57:26.211Z,4.20
2018-07-15T08:00:06.886Z,5.20
2018-07-15T08:02:47.679Z,4.60
2018-07-15T08:05:28.823Z,4.40
2018-07-15T08:08:09.464Z,4.87
2018-07-15T08:10:51.478Z,4.90
2018-07-15T08:13:33.698Z,4.97
2018-07-15T08:16:15.577Z,3.67
2018-07-15T08:18:56.281Z,4.63
2018-07-15T08:21:36.956Z,5.13
2018-07-15T08:24:18.250Z,4.20
2018-07-15T08:26:58.970Z,5.03
2018-07-15T08:29:40.329Z,4.43
2018-07-15T08:32:21.544Z,4.93
2018-07-15T08:35:02.682Z,4.87
2018-07-15T08:37:44.075Z,4.97
2018-07-15T08:40:24.971Z,7.00
2018-07-15T08:43:05.852Z,6.70
2018-07-15T08:45:47.070Z,6.07
2018-07-15T08:48:28.522Z,5.67
2018-07-15T08:51:09.447Z,6.20
2018-07-15T08:53:50.600Z,6.20
2018-07-15T08:56:31.315Z,6.63
2018-07-15T08:59:12.580Z,6.70
2018-07-15T09:01:53.538Z,7.80
2018-07-15T09:04:34.857Z,6.80
2018-07-15T09:07:15.848Z,6.87
2018-07-15T09:09:56.763Z,6.23
2018-07-15T09:12:37.756Z,6.10
2018-07-15T09:15:18.768Z,8.87
2018-07-15T09:17:59.796Z,6.50
2018-07-15T09:20:40.443Z,6.20
2018-07-15T09:23:21.630Z,4.63
2018-07-15T09:26:02.859Z,5.87
2018-07-15T09:28:44.075Z,6.03
2018-07-15T09:31:25.380Z,5.73
2018-07-15T09:34:06.428Z,6.23
2018-07-15T09:36:47.576Z,5.00
2018-07-15T09:39:28.727Z,5.67
2018-07-15T09:42:09.951Z,4.87
2018-07-15T09:44:51.365Z,4.63
2018-07-15T09:47:32.840Z,4.97
2018-07-15T09:50:14.265Z,4.27
2018-07-15T09:52:55.144Z,5.27
2018-07-15T09:55:36.469Z,5.00
2018-07-15T09:58:17.967Z,5.00
2018-07-15T10:00:59.202Z,4.93
2018-07-15T10:03:40.527Z,5.10
2018-07-15T10:06:21.458Z,5.50
2018-07-15T10:09:02.404Z,5.60
2018-07-15T10:11:43.362Z,7.73
2018-07-15T10:14:24.381Z,6.10
2018-07-15T10:17:05.507Z,6.07
2018-07-15T10:19:46.604Z,6.00
2018-07-15T10:22:27.588Z,6.50
2018-07-15T10:25:08.338Z,6.70
2018-07-15T10:27:49.166Z,6.40
2018-07-15T10:30:30.286Z,6.20
2018-07-15T10:33:11.479Z,6.70
2018-07-15T10:35:52.480Z,5.90
2018-07-15T10:38:33.608Z,6.37
2018-07-15T10:41:14.814Z,6.50
2018-07-15T10:43:55.994Z,6.00
2018-07-15T10:46:37.159Z,6.40
2018-07-15T10:49:18.469Z,6.30
2018-07-15T10:51:59.185Z,5.63
2018-07-15T10:54:40.582Z,6.20
2018-07-15T10:57:21.404Z,5.37
2018-07-15T11:00:02.628Z,5.60
2018-07-15T11:02:43.722Z,6.03
2018-07-15T11:05:25.195Z,5.10
2018-07-15T11:08:06.223Z,6.03
2018-07-15T11:10:47.400Z,5.77
2018-07-15T11:13:28.888Z,6.63
2018-07-15T11:16:09.540Z,6.40
2018-07-15T11:18:50.891Z,5.10
2018-07-15T11:21:32.203Z,6.33
2018-07-15T11:24:12.829Z,5.80
2018-07-15T11:26:53.629Z,6.00
2018-07-15T11:29:34.992Z,4.63
2018-07-15T11:32:16.228Z,5.47
2018-07-15T11:34:57.289Z,4.50
2018-07-15T11:37:38.451Z,4.10
2018-07-15T11:40:20.040Z,4.60
2018-07-15T11:43:01.036Z,3.90
2018-07-15T11:45:42.016Z,4.33
2018-07-15T11:48:23.185Z,4.53
2018-07-15T11:51:04.296Z,4.53
2018-07-15T11:53:45.266Z,3.93
2018-07-15T11:56:26.000Z,4.40
2018-07-15T11:59:07.329Z,4.87
2018-07-15T12:01:48.561Z,5.53
2018-07-15T12:04:29.044Z,4.30
2018-07-15T12:07:10.320Z,5.00
2018-07-15T12:09:51.692Z,5.37
2018-07-15T12:12:32.927Z,5.17
2018-07-15T12:15:14.119Z,4.23
2018-07-15T12:17:55.366Z,4.23
2018-07-15T12:20:36.664Z,5.27
2018-07-15T12:23:17.941Z,5.40
2018-07-15T12:25:59.337Z,4.53
2018-07-15T12:28:40.840Z,4.53
2018-07-15T12:31:21.333Z,3.80
2018-07-15T12:34:02.486Z,4.70
2018-07-15T12:36:43.605Z,4.80
2018-07-15T12:39:24.835Z,4.40
2018-07-15T12:42:05.799Z,4.63
2018-07-15T12:44:46.833Z,5.30
2018-07-15T12:47:27.736Z,4.40
2018-07-15T12:50:08.959Z,4.90
2018-07-15T12:52:50.202Z,5.47
2018-07-15T12:55:31.718Z,4.87
2018-07-15T12:58:12.460Z,4.60
2018-07-15T13:00:53.636Z,3.83
2018-07-15T13:03:34.528Z,4.77
2018-07-15T13:06:15.174Z,4.57
2018-07-15T13:08:56.386Z,5.27
2018-07-15T13:11:37.075Z,4.63
2018-07-15T13:14:18.136Z,4.73
2018-07-15T13:16:58.634Z,5.70
2018-07-15T13:19:39.495Z,4.77
2018-07-15T13:22:20.911Z,4.97
2018-07-15T13:25:01.779Z,4.63
2018-07-15T13:27:43.012Z,4.87
2018-07-15T13:30:24.401Z,5.30
2018-07-15T13:33:05.356Z,4.77
2018-07-15T13:35:46.214Z,4.60
2018-07-15T13:38:27.227Z,4.33
2018-07-15T13:41:08.441Z,4.13
2018-07-15T13:43:49.349Z,4.20
2018-07-15T13:46:29.825Z,4.30
2018-07-15T13:49:10.636Z,4.73
2018-07-15T13:51:51.416Z,5.03
2018-07-15T13:54:32.420Z,3.90
2018-07-15T13:57:13.415Z,5.37
2018-07-15T13:59:54.239Z,4.77
2018-07-15T14:02:35.364Z,4.60
2018-07-15T14:05:15.927Z,5.30
2018-07-15T14:07:56.983Z,5.13
2018-07-15T14:10:37.855Z,4.53
2018-07-15T14:13:18.680Z,4.00
2018-07-15T14:15:59.548Z,4.30
2018-07-15T14:18:40.751Z,4.33
2018-07-15T14:21:21.829Z,3.63
2018-07-15T14:24:02.508Z,5.30
2018-07-15T14:26:43.676Z,4.87
2018-07-15T14:29:25.002Z,4.43
2018-07-15T14:32:06.065Z,4.90
2018-07-15T14:34:47.119Z,4.90
2018-07-15T14:37:28.041Z,4.60
2018-07-15T14:40:09.219Z,5.07
2018-07-15T14:42:50.589Z,5.77
2018-07-15T14:45:31.859Z,5.00
2018-07-15T14:48:13.032Z,5.30
2018-07-15T14:50:53.992Z,4.53
2018-07-15T14:53:35.061Z,4.70
2018-07-15T14:56:15.949Z,4.20
2018-07-15T14:58:57.164Z,4.70
2018-07-15T15:01:38.049Z,4.20
2018-07-15T15:04:18.924Z,5.63
2018-07-15T15:06:59.755Z,5.20
2018-07-15T15:09:40.715Z,5.67
2018-07-15T15:12:22.017Z,5.83
2018-07-15T15:15:03.127Z,5.40
2018-07-15T15:17:44.031Z,5.43
2018-07-15T15:20:24.988Z,5.60
2018-07-15T15:23:06.028Z,6.80
2018-07-15T15:25:47.273Z,5.73
2018-07-15T15:28:28.281Z,5.80
2018-07-15T15:31:09.425Z,6.03
2018-07-15T15:33:50.508Z,5.50
2018-07-15T15:36:31.659Z,7.23
2018-07-15T15:39:12.667Z,7.07
2018-07-15T15:41:53.953Z,6.27
2018-07-15T15:44:35.561Z,5.93
2018-07-15T15:47:16.815Z,6.07
2018-07-15T15:49:58.093Z,5.73
2018-07-15T15:52:39.123Z,6.30
2018-07-15T15:55:20.285Z,7.03
2018-07-15T15:58:01.258Z,6.00
2018-07-15T16:00:41.786Z,6.27
2018-07-15T16:03:22.579Z,7.00
2018-07-15T16:06:03.617Z,6.60
2018-07-15T16:08:44.273Z,7.87
2018-07-15T16:11:25.508Z,7.77
2018-07-15T16:14:07.284Z,7.27
2018-07-15T16:16:48.035Z,7.50
2018-07-15T16:19:28.982Z,7.47
2018-07-15T16:22:09.949Z,9.07
2018-07-15T16:24:51.371Z,7.70
2018-07-15T16:27:31.936Z,9.20
2018-07-15T16:30:12.747Z,9.83
2018-07-15T16:32:53.949Z,10.90
2018-07-15T16:35:34.755Z,10.77
2018-07-15T16:38:15.547Z,11.80
2018-07-15T16:40:56.666Z,11.47
2018-07-15T16:43:37.643Z,11.80
2018-07-15T16:46:18.164Z,11.77
2018-07-15T16:48:59.543Z,12.27
2018-07-15T16:51:40.132Z,12.33
2018-07-15T16:54:21.631Z,12.17
2018-07-15T16:57:03.069Z,13.67
2018-07-15T16:59:43.781Z,13.20
2018-07-15T17:02:24.782Z,13.37
2018-07-15T17:05:05.767Z,13.77
2018-07-15T17:07:46.888Z,16.10
2018-07-15T17:10:28.034Z,14.63
2018-07-15T17:13:08.976Z,14.83
2018-07-15T17:15:50.036Z,14.40
2018-07-15T17:18:31.640Z,17.83
2018-07-15T17:21:13.067Z,16.20
2018-07-15T17:23:54.016Z,18.90
2018-07-15T17:26:35.489Z,18.53
2018-07-15T17:29:16.567Z,18.73
2018-07-15T17:31:57.932Z,20.30
2018-07-15T17:34:39.405Z,19.97
2018-07-15T17:37:20.864Z,22.93
2018-07-15T17:40:01.808Z,21.80
2018-07-15T17:42:43.282Z,21.60
2018-07-15T17:45:24.542Z,22.20
2018-07-15T17:48:06.008Z,23.00
2018-07-15T17:50:47.172Z,21.00
2018-07-15T17:53:28.459Z,20.07
2018-07-15T17:56:09.975Z,19.20
2018-07-15T17:58:51.314Z,18.20
2018-07-15T18:01:32.818Z,17.50
2018-07-15T18:04:13.319Z,17.57
2018-07-15T18:06:53.977Z,19.10
2018-07-15T18:09:34.545Z,17.60
2018-07-15T18:12:15.937Z,18.70
2018-07-15T18:14:57.791Z,17.20
2018-07-15T18:17:38.444Z,19.00
2018-07-15T18:20:19.709Z,19.33
2018-07-15T18:23:00.541Z,18.53
2018-07-15T18:25:41.528Z,19.70
2018-07-15T18:28:22.939Z,19.53
2018-07-15T18:31:04.028Z,21.57
2018-07-15T18:33:45.162Z,20.50
2018-07-15T18:36:26.263Z,19.03
2018-07-15T18:39:07.753Z,19.30
2018-07-15T18:41:48.536Z,19.43
2018-07-15T18:44:29.624Z,20.37
2018-07-15T18:47:10.475Z,21.73
2018-07-15T18:49:51.512Z,22.17
2018-07-15T18:52:32.318Z,21.67
2018-07-15T18:55:13.263Z,22.87
2018-07-15T18:57:54.700Z,22.50
2018-07-15T19:00:35.747Z,21.73
2018-07-15T19:03:17.163Z,24.67
2018-07-15T19:05:58.610Z,21.60
2018-07-15T19:08:39.521Z,23.33
2018-07-15T19:11:20.520Z,22.23
2018-07-15T19:14:01.636Z,23.13
2018-07-15T19:16:42.624Z,22.27
2018-07-15T19:19:23.860Z,22.27
2018-07-15T19:22:05.316Z,20.20
2018-07-15T19:24:46.442Z,21.10
2018-07-15T19:27:27.583Z,22.63
2018-07-15T19:30:08.767Z,22.93
2018-07-15T19:32:50.230Z,22.43
2018-07-15T19:35:31.685Z,23.30
2018-07-15T19:38:13.246Z,23.23
2018-07-15T19:40:53.941Z,23.97
2018-07-15T19:43:35.161Z,23.67
2018-07-15T19:46:15.991Z,21.83
2018-07-15T19:48:57.263Z,21.90
2018-07-15T19:51:38.503Z,23.37
2018-07-15T19:54:19.240Z,24.40
2018-07-15T19:57:00.699Z,25.83
2018-07-15T19:59:41.788Z,23.63
2018-07-15T20:02:22.768Z,23.37
2018-07-15T20:05:03.763Z,25.10
2018-07-15T20:07:44.681Z,23.40
2018-07-15T20:10:25.746Z,23.60
2018-07-15T20:13:07.342Z,24.30
2018-07-15T20:15:48.007Z,26.70
2018-07-15T20:18:29.174Z,26.63
2018-07-15T20:21:10.252Z,29.37
2018-07-15T20:23:51.985Z,26.90
2018-07-15T20:26:32.975Z,28.13
2018-07-15T20:29:14.020Z,30.73
2018-07-15T20:31:55.384Z,28.50
2018-07-15T20:34:36.529Z,27.77
2018-07-15T20:37:17.745Z,29.77
2018-07-15T20:39:58.700Z,29.73
2018-07-15T20:42:39.921Z,26.07
2018-07-15T20:45:21.478Z,30.63
2018-07-15T20:48:02.547Z,30.73
2018-07-15T20:50:43.978Z,27.30
2018-07-15T20:53:24.974Z,27.93
2018-07-15T20:56:06.507Z,27.40
2018-07-15T20:58:47.281Z,28.90
2018-07-15T21:01:28.459Z,29.43
2018-07-15T21:04:10.040Z,29.33
2018-07-15T21:06:51.132Z,28.93
2018-07-15T21:09:32.376Z,26.40
2018-07-15T21:12:13.208Z,28.53
2018-07-15T21:14:54.211Z,29.93
2018-07-15T21:17:35.341Z,26.57
2018-07-15T21:20:16.425Z,26.50
2018-07-15T21:22:57.307Z,26.30
2018-07-15T21:25:38.772Z,24.93
2018-07-15T21:28:20.317Z,27.10
2018-07-15T21:31:01.243Z,28.57
2018-07-15T21:33:42.788Z,25.60
2018-07-15T21:36:24.058Z,24.80
2018-07-15T21:39:05.444Z,24.87
2018-07-15T21:41:46.858Z,27.83
2018-07-15T21:44:28.232Z,24.63
2018-07-15T21:47:09.400Z,26.17
2018-07-15T21:49:50.929Z,26.53
2018-07-15T21:52:32.166Z,25.57
2018-07-15T21:55:13.355Z,26.50
2018-07-15T21:57:54.631Z,27.30
2018-07-15T22:00:35.510Z,26.17
2018-07-15T22:03:16.488Z,26.50
2018-07-15T22:05:57.195Z,28.00
2018-07-15T22:08:38.283Z,26.87
2018-07-15T22:11:18.969Z,26.80
2018-07-15T22:14:00.403Z,26.90
2018-07-15T22:16:41.389Z,25.73
2018-07-15T22:19:22.507Z,24.30
2018-07-15T22:22:03.595Z,23.30
2018-07-15T22:24:44.388Z,25.43
2018-07-15T22:27:25.092Z,25.00
2018-07-15T22:30:05.825Z,26.33
2018-07-15T22:32:46.670Z,26.57
2018-07-15T22:35:27.991Z,27.20
2018-07-15T22:38:08.973Z,25.03
2018-07-15T22:40:49.923Z,25.63
2018-07-15T22:43:31.232Z,24.83
2018-07-15T22:46:12.495Z,25.17
2018-07-15T22:48:53.235Z,25.90
2018-07-15T22:51:33.963Z,24.07
2018-07-15T22:54:14.893Z,24.33
2018-07-15T22:56:55.578Z,23.57
2018-07-15T22:59:37.095Z,25.30
2018-07-15T23:02:18.016Z,25.57
2018-07-15T23:04:58.799Z,23.23
2018-07-15T23:07:39.687Z,23.47
2018-07-15T23:10:20.994Z,25.70
2018-07-15T23:13:03.383Z,26.80
2018-07-15T23:15:44.863Z,25.60
2018-07-15T23:18:25.681Z,25.27
2018-07-15T23:21:06.668Z,23.50
2018-07-15T23:23:47.684Z,23.90
2018-07-15T23:26:28.516Z,24.57
2018-07-15T23:29:09.455Z,26.83
2018-07-15T23:31:50.262Z,24.90
2018-07-15T23:34:30.848Z,27.30
2018-07-15T23:37:12.404Z,25.63
2018-07-15T23:39:52.928Z,26.40
2018-07-15T23:42:34.444Z,25.97
2018-07-15T23:45:15.266Z,25.90
2018-07-15T23:47:56.632Z,26.10
2018-07-15T23:50:37.679Z,26.60
2018-07-15T23:53:18.848Z,25.30
2018-07-15T23:56:00.241Z,26.00
2018-07-15T23:58:41.580Z,25.90
